Time;durP1;ratioP1;P1;durP2;ratioP2;P2;SDS_P1;SDS_P2;PMS_P1;PMS_P2;Temp;Humidity;BMP_temperature;BMP_pressure;BME280_temperature;BME280_humidity;BME280_pressure;Samples;Min_cycle;Max_cycle;Signal;HPM_P1;HPM_P2
2023/03/26 00:01:14;;;;;;;0.85;0.40;;;;;;;22.39;42.12;100661.84;4972539;28;96786;-80
2023/03/26 00:03:43;;;;;;;0.50;0.40;;;;;;;22.38;42.35;100658.25;4963571;28;96877;-80
2023/03/26 00:06:12;;;;;;;0.73;0.30;;;;;;;22.37;42.07;100656.56;4969930;28;96857;-80
2023/03/26 00:08:41;;;;;;;1.08;0.30;;;;;;;22.37;42.09;100662.03;4954583;28;96816;-81
2023/03/26 00:11:09;;;;;;;0.80;0.40;;;;;;;22.38;41.97;100657.41;4955687;28;96918;-81
2023/03/26 00:13:36;;;;;;;1.05;0.30;;;;;;;22.38;42.17;100662.88;4949291;28;100793;-80
2023/03/26 00:16:03;;;;;;;0.88;0.50;;;;;;;22.37;42.11;100651.09;4972705;28;97456;-80
2023/03/26 00:18:30;;;;;;;0.85;0.30;;;;;;;22.37;42.22;100652.97;4972635;28;97423;-80
2023/03/26 00:20:57;;;;;;;0.73;0.30;;;;;;;22.37;42.23;100644.78;4956700;28;97110;-80
2023/03/26 00:23:26;;;;;;;0.60;0.40;;;;;;;22.38;42.10;100651.94;4970369;28;96790;-80
2023/03/26 00:25:55;;;;;;;0.68;0.30;;;;;;;22.38;42.34;100650.06;4968810;28;97865;-80
2023/03/26 00:28:23;;;;;;;1.02;0.52;;;;;;;22.38;42.03;100643.72;4968373;28;97810;-80
2023/03/26 00:30:57;;;;;;;0.68;0.30;;;;;;;22.38;42.19;100647.31;4972478;28;96834;-81
2023/03/26 00:33:24;;;;;;;0.90;0.38;;;;;;;22.37;42.36;100639.31;4953193;28;96747;-80
2023/03/26 00:35:52;;;;;;;1.02;0.50;;;;;;;22.37;42.05;100645.63;4969519;28;96873;-80
2023/03/26 00:38:24;;;;;;;0.98;0.50;;;;;;;22.38;42.20;100641.00;4966442;28;96758;-81
2023/03/26 00:40:51;;;;;;;0.55;0.30;;;;;;;22.38;41.95;100641.84;4966880;28;97250;-81
2023/03/26 00:43:18;;;;;;;0.73;0.45;;;;;;;22.39;42.20;100631.75;4953159;28;96988;-81
2023/03/26 00:45:51;;;;;;;0.80;0.30;;;;;;;22.39;41.98;100631.75;4969420;28;98492;-80
2023/03/26 00:48:22;;;;;;;0.95;0.43;;;;;;;22.38;42.16;100624.59;4969637;28;97063;-81
2023/03/26 00:51:05;;;;;;;0.63;0.22;;;;;;;22.36;42.07;100627.50;4959910;28;96794;-80
2023/03/26 00:53:32;;;;;;;0.63;0.30;;;;;;;22.37;42.10;100622.88;4971081;28;98460;-80
2023/03/26 00:55:59;;;;;;;1.52;0.50;;;;;;;22.37;42.11;100620.16;4952380;28;96642;-80
2023/03/26 00:58:26;;;;;;;0.60;0.40;;;;;;;22.37;42.15;100615.53;4954018;28;97230;-80
2023/03/26 01:00:56;;;;;;;0.40;0.20;;;;;;;22.38;41.83;100613.63;4973836;28;97752;-81
2023/03/26 01:03:25;;;;;;;0.90;0.55;;;;;;;22.38;42.05;100619.13;4971672;28;96613;-81
2023/03/26 01:06:03;;;;;;;0.63;0.30;;;;;;;22.38;42.41;100619.13;4958018;28;97879;-80
2023/03/26 01:08:31;;;;;;;1.20;0.40;;;;;;;22.37;42.04;100612.78;4951493;28;97519;-80
2023/03/26 01:11:13;;;;;;;0.63;0.30;;;;;;;22.37;42.11;100617.41;4950965;28;96964;-80
2023/03/26 01:13:46;;;;;;;0.82;0.43;;;;;;;22.37;42.20;100607.31;4978343;28;97701;-81
2023/03/26 01:16:20;;;;;;;0.77;0.50;;;;;;;22.36;42.09;100600.16;4966747;28;96749;-80
2023/03/26 01:18:47;;;;;;;1.60;0.30;;;;;;;22.37;42.05;100604.59;4969068;28;96780;-81
2023/03/26 01:21:21;;;;;;;1.40;0.40;;;;;;;22.37;42.14;100596.38;4971807;28;97008;-80
2023/03/26 01:23:56;;;;;;;0.40;0.30;;;;;;;22.37;42.11;100592.78;4967985;28;96877;-80
2023/03/26 01:26:48;;;;;;;0.70;0.30;;;;;;;22.38;41.92;100575.34;4969613;28;98931;-80
2023/03/26 01:29:33;;;;;;;0.98;0.40;;;;;;;22.37;41.96;100576.38;4981224;28;96708;-80
2023/03/26 01:32:17;;;;;;;0.60;0.30;;;;;;;22.37;42.09;100573.63;4962091;28;97050;-80
2023/03/26 01:34:58;;;;;;;0.60;0.20;;;;;;;22.37;42.03;100576.38;4952528;28;97116;-80
2023/03/26 01:37:57;;;;;;;0.93;0.40;;;;;;;22.37;42.25;100562.69;4970648;28;97933;-81
2023/03/26 01:40:41;;;;;;;0.73;0.38;;;;;;;22.36;41.87;100561.00;4968718;28;96784;-81
2023/03/26 01:43:34;;;;;;;0.63;0.40;;;;;;;22.36;41.98;100556.38;4969082;28;97062;-80
2023/03/26 01:46:05;;;;;;;0.55;0.30;;;;;;;22.34;42.02;100547.50;4981579;28;98398;-81
2023/03/26 01:48:38;;;;;;;0.63;0.30;;;;;;;22.37;42.01;100543.53;4970646;28;96367;-81
2023/03/26 01:51:07;;;;;;;0.77;0.40;;;;;;;22.37;42.14;100535.31;4967114;28;97061;-81
2023/03/26 01:53:40;;;;;;;0.60;0.30;;;;;;;22.35;41.65;100531.94;4969455;28;97652;-81
2023/03/26 01:56:25;;;;;;;1.45;0.60;;;;;;;22.37;41.95;100532.59;4952922;28;96908;-81
2023/03/26 01:59:15;;;;;;;0.98;0.40;;;;;;;22.36;42.11;100528.16;4963079;28;96938;-81
2023/03/26 02:01:53;;;;;;;1.02;0.40;;;;;;;22.36;41.98;100534.47;4951283;28;96741;-81
2023/03/26 02:04:27;;;;;;;1.35;0.60;;;;;;;22.37;41.89;100525.22;4971248;28;96815;-80
2023/03/26 02:07:33;;;;;;;0.63;0.40;;;;;;;22.37;41.92;100527.13;4948313;28;98525;-80
2023/03/26 02:10:12;;;;;;;0.52;0.30;;;;;;;22.36;42.14;100522.69;4971461;28;97226;-80
2023/03/26 02:12:41;;;;;;;0.80;0.40;;;;;;;22.37;42.01;100524.38;4952779;28;97747;-81
2023/03/26 02:15:10;;;;;;;0.75;0.40;;;;;;;22.37;42.11;100513.44;4969771;28;97369;-81
2023/03/26 02:17:39;;;;;;;0.70;0.38;;;;;;;22.37;42.01;100517.03;4968600;28;97628;-80
2023/03/26 02:20:11;;;;;;;0.73;0.50;;;;;;;22.39;42.07;100511.34;4954190;28;98556;-81
2023/03/26 02:22:39;;;;;;;1.15;0.30;;;;;;;22.39;42.16;100508.63;4954106;28;96987;-81
2023/03/26 02:25:10;;;;;;;0.70;0.32;;;;;;;22.39;41.90;100508.63;4975825;28;96732;-81
2023/03/26 02:27:37;;;;;;;0.40;0.30;;;;;;;22.39;42.04;100505.88;4981056;28;98731;-80
2023/03/26 02:30:10;;;;;;;0.70;0.40;;;;;;;22.39;41.92;100495.78;4980029;28;97218;-80
2023/03/26 02:32:42;;;;;;;1.65;0.32;;;;;;;22.40;41.78;100496.63;4973856;28;96732;-80
2023/03/26 02:35:11;;;;;;;0.50;0.32;;;;;;;22.41;42.03;100495.59;4974300;28;96685;-80
2023/03/26 02:37:39;;;;;;;0.40;0.30;;;;;;;22.41;41.92;100482.75;4966645;28;100057;-80
2023/03/26 02:40:14;;;;;;;0.77;0.30;;;;;;;22.41;42.12;100480.03;4966797;28;96846;-81
2023/03/26 02:42:44;;;;;;;1.08;0.30;;;;;;;22.41;41.88;100481.91;4973081;28;96798;-81
2023/03/26 02:45:11;;;;;;;0.57;0.20;;;;;;;22.40;41.99;100470.13;4979902;28;96746;-80
2023/03/26 02:47:56;;;;;;;0.90;0.40;;;;;;;22.40;42.02;100478.34;4972262;28;97129;-81
2023/03/26 02:50:42;;;;;;;0.60;0.40;;;;;;;22.39;41.83;100473.06;4975205;28;96659;-80
2023/03/26 02:53:32;;;;;;;0.57;0.30;;;;;;;22.38;41.90;100463.16;4973060;28;96813;-81
2023/03/26 02:56:34;;;;;;;0.73;0.43;;;;;;;22.39;42.01;100473.06;4975557;28;98278;-80
2023/03/26 02:59:21;;;;;;;0.45;0.30;;;;;;;22.38;42.04;100466.72;4972486;28;98059;-80
2023/03/26 03:02:04;;;;;;;0.50;0.50;;;;;;;22.39;41.71;100454.75;4974189;28;97080;-81
2023/03/26 03:04:32;;;;;;;0.57;0.30;;;;;;;22.39;41.79;100456.63;4957996;28;96852;-80
2023/03/26 03:06:59;;;;;;;0.77;0.50;;;;;;;22.40;41.93;100450.97;4956679;28;96870;-81
2023/03/26 03:09:26;;;;;;;0.65;0.30;;;;;;;22.39;42.26;100452.00;4955875;28;96875;-80
2023/03/26 03:12:11;;;;;;;0.77;0.30;;;;;;;22.39;41.82;100449.28;4971670;28;96975;-81
2023/03/26 03:14:38;;;;;;;0.35;0.28;;;;;;;22.40;42.08;100442.75;4975139;28;97169;-81
2023/03/26 03:17:04;;;;;;;0.40;0.20;;;;;;;22.41;41.99;100438.13;4971695;28;96979;-81
2023/03/26 03:19:31;;;;;;;0.50;0.30;;;;;;;22.41;41.70;100435.41;4953313;28;96892;-80
2023/03/26 03:21:58;;;;;;;0.70;0.40;;;;;;;22.42;41.55;100437.09;4969954;28;98442;-80
2023/03/26 03:24:25;;;;;;;0.30;0.20;;;;;;;22.42;41.89;100426.16;4951837;28;96800;-80
2023/03/26 03:26:55;;;;;;;0.60;0.30;;;;;;;22.42;41.68;100420.66;4972113;28;96890;-81
2023/03/26 03:29:52;;;;;;;1.17;0.38;;;;;;;22.39;41.79;100421.91;4964560;28;97930;-80
2023/03/26 03:32:58;;;;;;;0.47;0.30;;;;;;;22.40;42.04;100420.88;4970002;28;96699;-80
2023/03/26 03:35:28;;;;;;;1.15;0.30;;;;;;;22.40;41.96;100417.28;4970243;28;96755;-80
2023/03/26 03:37:58;;;;;;;0.40;0.30;;;;;;;22.41;41.65;100416.25;4980495;28;96955;-80
2023/03/26 03:40:26;;;;;;;0.50;0.40;;;;;;;22.41;42.00;100411.63;4972262;28;96947;-80
2023/03/26 03:42:53;;;;;;;0.50;0.20;;;;;;;22.41;41.89;100410.78;4957022;28;97798;-80
2023/03/26 03:45:29;;;;;;;0.98;0.52;;;;;;;22.41;41.62;100405.31;4957550;28;96813;-80
2023/03/26 03:48:08;;;;;;;0.65;0.40;;;;;;;22.40;41.75;100398.97;4970723;28;96831;-80
2023/03/26 03:50:42;;;;;;;0.30;0.20;;;;;;;22.41;41.84;100399.81;4955017;28;97548;-81
2023/03/26 03:53:24;;;;;;;0.50;0.20;;;;;;;22.42;42.11;100396.03;4970738;28;96734;-80
2023/03/26 03:55:54;;;;;;;0.68;0.35;;;;;;;22.41;41.95;100394.34;4973724;28;97769;-80
2023/03/26 03:58:26;;;;;;;0.77;0.22;;;;;;;22.42;41.82;100393.31;4981709;28;98017;-80
2023/03/26 04:00:59;;;;;;;0.95;0.40;;;;;;;22.42;41.71;100385.94;4964488;28;97200;-80
2023/03/26 04:03:48;;;;;;;0.40;0.30;;;;;;;22.41;41.76;100383.41;4962281;28;96864;-80
2023/03/26 04:06:18;;;;;;;0.80;0.30;;;;;;;22.41;41.58;100381.53;4971257;28;96787;-80
2023/03/26 04:08:50;;;;;;;0.50;0.30;;;;;;;22.43;41.67;100384.06;4972431;28;97122;-80
2023/03/26 04:11:17;;;;;;;0.38;0.28;;;;;;;22.42;41.67;100379.63;4977776;28;96860;-80
2023/03/26 04:14:06;;;;;;;1.08;0.30;;;;;;;22.42;41.58;100374.16;4959773;28;96950;-80
2023/03/26 04:16:52;;;;;;;1.17;0.30;;;;;;;22.41;41.81;100372.47;4970892;28;96960;-80
2023/03/26 04:19:18;;;;;;;0.35;0.20;;;;;;;22.42;41.32;100366.78;4971229;28;96809;-80
2023/03/26 04:21:45;;;;;;;0.60;0.28;;;;;;;22.42;41.59;100365.94;4973559;28;97111;-81
2023/03/26 04:24:12;;;;;;;0.43;0.30;;;;;;;22.43;41.74;100363.00;4971940;28;96872;-80
2023/03/26 04:27:11;;;;;;;0.45;0.20;;;;;;;22.41;41.88;100353.31;4951274;28;98278;-81
2023/03/26 04:29:42;;;;;;;0.90;0.50;;;;;;;22.42;41.90;100352.28;4974317;28;97065;-80
2023/03/26 04:32:29;;;;;;;0.30;0.30;;;;;;;22.41;41.92;100348.69;4969919;28;96840;-81
2023/03/26 04:34:59;;;;;;;0.52;0.32;;;;;;;22.42;41.87;100346.78;4955226;28;97300;-80
2023/03/26 04:37:33;;;;;;;0.45;0.20;;;;;;;22.43;41.63;100346.59;4972702;28;96777;-80
2023/03/26 04:40:13;;;;;;;0.63;0.30;;;;;;;22.42;41.49;100341.31;4970759;28;96805;-80
2023/03/26 04:42:58;;;;;;;0.73;0.40;;;;;;;22.41;41.49;100343.22;4957271;28;97522;-81
2023/03/26 04:46:02;;;;;;;0.35;0.20;;;;;;;22.41;41.56;100331.41;4971718;28;97673;-81
2023/03/26 04:48:33;;;;;;;0.80;0.30;;;;;;;22.40;41.47;100327.84;4955039;28;96831;-80
2023/03/26 04:51:00;;;;;;;0.40;0.28;;;;;;;22.42;41.47;100327.66;4971227;28;97152;-80
2023/03/26 04:53:27;;;;;;;0.50;0.20;;;;;;;22.42;41.84;100322.16;4957067;28;99908;-81
2023/03/26 04:56:33;;;;;;;0.65;0.30;;;;;;;22.43;41.59;100315.66;4965237;28;96807;-80
2023/03/26 04:59:33;;;;;;;0.52;0.32;;;;;;;22.41;41.68;100312.28;4971155;28;97190;-80
2023/03/26 05:02:05;;;;;;;0.90;0.30;;;;;;;22.41;41.66;100307.66;4970691;28;97033;-80
2023/03/26 05:04:44;;;;;;;0.70;0.30;;;;;;;22.41;41.62;100302.16;4979128;28;98140;-80
2023/03/26 05:07:17;;;;;;;0.85;0.40;;;;;;;22.42;41.69;100294.81;4972047;28;99872;-80
2023/03/26 05:09:48;;;;;;;0.50;0.30;;;;;;;22.42;41.82;100286.59;4981256;28;97512;-80
2023/03/26 05:12:17;;;;;;;0.40;0.30;;;;;;;22.42;41.96;100284.72;4954166;28;96779;-80
2023/03/26 05:15:03;;;;;;;0.90;0.40;;;;;;;22.41;41.53;100271.22;4953924;28;97819;-80
2023/03/26 05:17:42;;;;;;;0.52;0.30;;;;;;;22.41;41.74;100274.81;4970394;28;97117;-80
2023/03/26 05:20:20;;;;;;;0.38;0.20;;;;;;;22.42;41.75;100270.19;4967041;28;97166;-80
2023/03/26 05:22:49;;;;;;;0.25;0.25;;;;;;;22.44;41.76;100268.09;4951932;28;96698;-80
2023/03/26 05:25:22;;;;;;;0.17;0.15;;;;;;;22.43;41.59;100255.44;4981495;28;97041;-80
2023/03/26 05:27:49;;;;;;;0.60;0.30;;;;;;;22.44;41.70;100257.16;4950750;28;96765;-80
2023/03/26 05:30:20;;;;;;;0.60;0.20;;;;;;;22.44;41.40;100246.19;4956484;28;96776;-80
2023/03/26 05:32:52;;;;;;;0.30;0.22;;;;;;;22.44;41.74;100243.47;4969350;28;97146;-80
2023/03/26 05:35:25;;;;;;;0.40;0.20;;;;;;;22.44;41.30;100238.00;4968298;28;97789;-80
2023/03/26 05:37:53;;;;;;;0.20;0.10;;;;;;;22.44;41.44;100238.00;4943921;28;98420;-80
2023/03/26 05:40:22;;;;;;;0.63;0.40;;;;;;;22.45;41.57;100239.69;4964112;28;97178;-80
2023/03/26 05:42:58;;;;;;;0.30;0.20;;;;;;;22.45;41.81;100231.47;4969775;28;97294;-80
2023/03/26 05:45:25;;;;;;;0.50;0.40;;;;;;;22.44;41.62;100230.63;4967376;28;97471;-80
2023/03/26 05:47:53;;;;;;;0.40;0.30;;;;;;;22.43;41.62;100220.72;4953058;28;97086;-80
2023/03/26 05:50:22;;;;;;;0.85;0.30;;;;;;;22.44;41.38;100227.03;4949784;28;97315;-80
2023/03/26 05:52:52;;;;;;;0.70;0.40;;;;;;;22.45;41.62;100220.53;4964188;28;98363;-80
2023/03/26 05:55:44;;;;;;;0.70;0.30;;;;;;;22.44;41.52;100216.09;4960040;28;97423;-80
2023/03/26 05:58:50;;;;;;;0.40;0.30;;;;;;;22.42;41.77;100210.00;4950430;28;97895;-80
2023/03/26 06:01:56;;;;;;;0.55;0.30;;;;;;;22.41;41.69;100208.28;4847695;29;97155;-80
2023/03/26 06:04:44;;;;;;;0.40;0.30;;;;;;;22.41;41.52;100217.34;4889099;28;97085;-79
2023/03/26 06:07:32;;;;;;;0.47;0.20;;;;;;;22.41;41.66;100205.56;4946613;28;97926;-79
2023/03/26 06:10:13;;;;;;;0.52;0.30;;;;;;;22.40;41.44;100206.59;4943450;28;98743;-79
2023/03/26 06:12:44;;;;;;;0.30;0.20;;;;;;;22.41;41.64;100203.66;4962737;28;96849;-80
2023/03/26 06:15:11;;;;;;;0.40;0.30;;;;;;;22.41;41.53;100197.34;4956938;28;96812;-80
2023/03/26 06:18:04;;;;;;;0.30;0.20;;;;;;;22.41;41.75;100197.34;4966518;28;97050;-79
2023/03/26 06:20:51;;;;;;;0.40;0.20;;;;;;;22.40;41.65;100195.66;4971684;28;97661;-80
2023/03/26 06:23:34;;;;;;;0.40;0.20;;;;;;;22.40;41.77;100195.66;4967613;28;97072;-79
2023/03/26 06:26:20;;;;;;;;;;;;;;;22.36;41.43;100183.44;4966007;28;96964;-79
2023/03/26 06:28:58;;;;;;;0.80;0.30;;;;;;;22.36;41.71;100188.91;4986742;28;97638;-79
2023/03/26 06:31:34;;;;;;;0.40;0.30;;;;;;;22.38;41.71;100189.56;4951057;28;100201;-79
2023/03/26 06:34:13;;;;;;;0.40;0.30;;;;;;;22.37;41.88;100185.97;4966545;28;96572;-79
2023/03/26 06:36:39;;;;;;;0.50;0.20;;;;;;;22.38;41.60;100179.44;4962564;28;97113;-80
2023/03/26 06:39:06;;;;;;;0.70;0.40;;;;;;;22.38;41.41;100173.13;4966714;28;96846;-80
2023/03/26 06:41:36;;;;;;;0.57;0.20;;;;;;;22.38;41.42;100171.25;4954591;28;97883;-79
2023/03/26 06:44:13;;;;;;;0.52;0.30;;;;;;;22.39;41.67;100166.63;4962517;28;96750;-79
2023/03/26 06:47:15;;;;;;;0.40;0.30;;;;;;;22.38;41.75;100176.72;4972887;28;97929;-79
2023/03/26 06:50:02;;;;;;;0.57;0.30;;;;;;;22.38;41.30;100173.13;4960065;28;97151;-79
2023/03/26 06:52:55;;;;;;;0.43;0.22;;;;;;;22.38;41.52;100173.97;4963506;28;96952;-80
2023/03/26 06:55:43;;;;;;;0.68;0.40;;;;;;;22.37;41.32;100169.56;4955313;28;97243;-79
2023/03/26 06:58:28;;;;;;;1.00;0.30;;;;;;;22.36;41.61;100173.34;4964586;28;97006;-80
2023/03/26 07:01:14;;;;;;;0.38;0.20;;;;;;;22.36;41.53;100178.81;4968326;28;97205;-78
2023/03/26 07:03:59;;;;;;;;;;;;;;;22.32;41.72;100174.78;4966986;28;96847;-79
2023/03/26 07:06:45;;;;;;;0.57;0.20;;;;;;;22.32;41.83;100176.69;4981249;28;97325;-80
2023/03/26 07:09:30;;;;;;;;;;;;;;;22.29;41.89;100171.56;4970315;28;96677;-80
2023/03/26 07:12:00;;;;;;;0.55;0.30;;;;;;;22.29;41.69;100177.88;4961645;28;97397;-79
2023/03/26 07:14:45;;;;;;;;;;;;;;;22.26;41.48;100178.28;4970039;28;97333;-79
2023/03/26 07:17:35;;;;;;;0.60;0.30;;;;;;;22.27;41.58;100179.13;4947137;28;97554;-80
2023/03/26 07:20:13;;;;;;;0.40;0.20;;;;;;;22.29;41.78;100169.69;4957118;28;96822;-80
2023/03/26 07:22:41;;;;;;;0.57;0.30;;;;;;;22.30;41.77;100168.66;4956013;28;97042;-79
2023/03/26 07:25:34;;;;;;;0.93;0.30;;;;;;;22.30;41.77;100176.03;4967699;28;97109;-79
2023/03/26 07:28:25;;;;;;;0.47;0.28;;;;;;;22.32;41.63;100168.47;4955952;28;97231;-79
2023/03/26 07:31:06;;;;;;;0.22;0.20;;;;;;;22.30;41.49;100170.56;4969345;28;96813;-79
2023/03/26 07:33:56;;;;;;;0.60;0.30;;;;;;;22.31;41.60;100170.34;4959667;28;96812;-80
2023/03/26 07:37:00;;;;;;;1.05;0.32;;;;;;;22.32;41.43;100168.47;4958046;28;97302;-79
2023/03/26 07:39:56;;;;;;;0.32;0.30;;;;;;;22.31;41.51;100155.84;4964310;28;97302;-81
2023/03/26 07:42:54;;;;;;;0.43;0.22;;;;;;;22.31;41.62;100164.03;4978619;28;97494;-81
2023/03/26 07:45:40;;;;;;;0.55;0.20;;;;;;;22.31;41.32;100164.03;4977714;28;96618;-80
2023/03/26 07:48:28;;;;;;;0.70;0.30;;;;;;;22.31;41.79;100158.56;4973040;28;97736;-81
2023/03/26 07:51:21;;;;;;;0.20;0.20;;;;;;;22.28;41.60;100158.94;4955695;28;96862;-80
2023/03/26 07:53:52;;;;;;;0.57;0.25;;;;;;;22.29;41.33;100160.63;4974338;28;96630;-80
2023/03/26 07:57:00;;;;;;;0.63;0.30;;;;;;;22.28;41.37;100143.38;4978955;28;96646;-81
2023/03/26 08:00:20;;;;;;;0.32;0.20;;;;;;;22.29;41.47;100149.69;4956395;28;99129;-81
2023/03/26 08:03:02;;;;;;;0.35;0.20;;;;;;;22.28;41.57;100143.38;4966727;28;97303;-82
2023/03/26 08:05:57;;;;;;;0.20;0.10;;;;;;;22.29;41.57;100155.16;4966884;28;96863;-81
2023/03/26 08:08:47;;;;;;;;;;;;;;;22.24;41.43;100149.44;4975652;28;96804;-81
2023/03/26 08:11:53;;;;;;;0.30;0.20;;;;;;;22.24;41.79;100146.72;4956071;28;96932;-81
2023/03/26 08:14:42;;;;;;;0.47;0.22;;;;;;;22.25;41.51;100148.41;4970073;28;96819;-81
2023/03/26 08:17:20;;;;;;;0.35;0.20;;;;;;;22.26;41.60;100147.34;4968321;28;97084;-82
2023/03/26 08:20:16;;;;;;;0.45;0.25;;;;;;;22.27;41.57;100140.84;4961779;28;96724;-81
2023/03/26 08:22:49;;;;;;;0.60;0.35;;;;;;;22.25;41.78;100141.03;4972490;28;97358;-81
2023/03/26 08:25:26;;;;;;;0.40;0.28;;;;;;;22.27;41.62;100141.69;4969950;28;97010;-82
2023/03/26 08:28:05;;;;;;;0.63;0.40;;;;;;;22.27;41.59;100136.22;4957428;28;97450;-81
2023/03/26 08:30:32;;;;;;;0.88;0.30;;;;;;;22.27;41.58;100135.38;4956991;28;96909;-82
2023/03/26 08:33:12;;;;;;;0.57;0.32;;;;;;;22.29;41.57;100134.13;4964276;28;96754;-81
2023/03/26 08:35:41;;;;;;;0.65;0.20;;;;;;;22.28;41.47;100131.59;4959960;28;96806;-81
2023/03/26 08:38:10;;;;;;;0.47;0.40;;;;;;;22.29;41.32;100144.22;4957021;28;96961;-81
2023/03/26 08:40:49;;;;;;;0.52;0.30;;;;;;;22.30;41.46;100135.00;4956725;28;96768;-81
2023/03/26 08:43:55;;;;;;;0.25;0.20;;;;;;;22.29;41.28;100128.66;4955790;28;96805;-81
2023/03/26 08:46:37;;;;;;;0.25;0.20;;;;;;;22.29;41.45;100133.28;4968438;28;97532;-82
2023/03/26 08:49:25;;;;;;;0.85;0.20;;;;;;;22.28;41.46;100124.22;4968465;28;96114;-82
2023/03/26 08:52:23;;;;;;;0.50;0.20;;;;;;;22.29;41.39;100134.13;4954273;28;96884;-82
2023/03/26 08:55:03;;;;;;;0.30;0.30;;;;;;;22.28;41.27;100126.97;4955449;28;96706;-81
2023/03/26 08:58:18;;;;;;;0.70;0.30;;;;;;;22.29;41.37;100119.59;4956193;28;96762;-82
2023/03/26 09:01:07;;;;;;;0.35;0.20;;;;;;;22.28;41.46;100123.38;4961863;28;96942;-81
2023/03/26 09:03:43;;;;;;;0.60;0.38;;;;;;;22.28;41.43;100120.66;4957113;28;96911;-81
2023/03/26 09:06:15;;;;;;;0.50;0.30;;;;;;;22.29;41.53;100119.59;4964276;28;97924;-82
2023/03/26 09:08:51;;;;;;;0.30;0.22;;;;;;;22.29;41.61;100117.72;4961716;28;96829;-80
2023/03/26 09:11:50;;;;;;;0.82;0.20;;;;;;;22.30;41.45;100116.69;4967719;28;96677;-81
2023/03/26 09:14:25;;;;;;;0.38;0.20;;;;;;;22.31;41.66;100115.66;4960180;28;97112;-80
2023/03/26 09:17:11;;;;;;;0.43;0.20;;;;;;;22.30;41.63;100115.84;4967748;28;96763;-81
2023/03/26 09:19:56;;;;;;;0.22;0.10;;;;;;;22.29;41.35;100103.19;4982230;28;96727;-81
2023/03/26 09:22:41;;;;;;;;;;;;;;;22.26;41.55;100109.06;4969118;28;97039;-81
2023/03/26 09:25:42;;;;;;;0.70;0.20;;;;;;;22.26;41.34;100117.28;4960266;28;97695;-81
2023/03/26 09:28:27;;;;;;;0.40;0.20;;;;;;;22.26;41.60;100109.91;4962662;28;97847;-81
2023/03/26 09:31:19;;;;;;;0.50;0.30;;;;;;;22.28;41.23;100109.72;4967014;28;96651;-81
2023/03/26 09:34:06;;;;;;;0.40;0.20;;;;;;;22.27;41.63;100103.41;4943533;28;97134;-81
2023/03/26 09:37:05;;;;;;;0.40;0.20;;;;;;;22.28;41.63;100107.81;4955490;28;100321;-82
2023/03/26 09:40:01;;;;;;;0.68;0.40;;;;;;;22.28;41.49;100110.56;4958599;28;96784;-81
2023/03/26 09:42:44;;;;;;;0.50;0.28;;;;;;;22.28;41.56;100106.97;4975855;28;96888;-81
2023/03/26 09:45:39;;;;;;;0.60;0.30;;;;;;;22.29;41.55;100105.94;4973258;28;96805;-82
2023/03/26 09:48:37;;;;;;;0.40;0.20;;;;;;;22.30;41.43;100113.97;4972119;28;96859;-81
2023/03/26 09:51:29;;;;;;;0.40;0.20;;;;;;;22.30;41.32;100111.22;4975144;28;96763;-81
2023/03/26 09:54:22;;;;;;;0.35;0.20;;;;;;;22.29;41.44;100106.75;4961809;28;96754;-81
2023/03/26 09:56:57;;;;;;;0.55;0.30;;;;;;;22.30;41.38;100104.91;4975421;28;96885;-83
2023/03/26 09:59:24;;;;;;;0.65;0.30;;;;;;;22.29;41.38;100112.25;4974544;28;96729;-82
2023/03/26 10:02:28;;;;;;;0.65;0.30;;;;;;;22.32;41.44;100111.03;4964649;28;97380;-82
2023/03/26 10:05:26;;;;;;;0.40;0.30;;;;;;;22.29;41.44;100098.56;4965285;28;96785;-82
2023/03/26 10:08:24;;;;;;;0.60;0.35;;;;;;;22.30;41.31;100102.19;4957799;28;97852;-82
2023/03/26 10:10:56;;;;;;;0.35;0.20;;;;;;;22.29;41.20;100105.94;4974146;28;97843;-82
2023/03/26 10:13:51;;;;;;;0.10;0.10;;;;;;;22.30;41.14;100107.66;4969294;28;98225;-83
2023/03/26 10:16:17;;;;;;;0.32;0.28;;;;;;;22.30;41.45;100107.66;4963741;28;97317;-84
2023/03/26 10:18:55;;;;;;;0.30;0.20;;;;;;;22.30;41.26;100103.03;4975342;28;96917;-82
2023/03/26 10:21:33;;;;;;;0.40;0.28;;;;;;;22.31;41.21;100103.88;4954872;28;97340;-81
2023/03/26 10:24:11;;;;;;;0.95;0.47;;;;;;;22.31;41.42;100107.44;4950832;28;96803;-80
2023/03/26 10:27:06;;;;;;;0.80;0.40;;;;;;;22.31;41.48;100098.38;4971087;28;96721;-81
2023/03/26 10:30:20;;;;;;;0.25;0.20;;;;;;;22.32;41.33;100111.03;4961650;28;97187;-80
2023/03/26 10:32:58;;;;;;;0.47;0.25;;;;;;;22.29;41.33;100103.19;4962317;28;97035;-80
2023/03/26 10:35:35;;;;;;;0.30;0.20;;;;;;;22.29;41.40;100114.13;4947955;28;96846;-80
2023/03/26 10:38:17;;;;;;;0.20;0.20;;;;;;;22.30;41.40;100110.38;4966756;28;97464;-79
2023/03/26 10:41:11;;;;;;;0.50;0.25;;;;;;;22.30;41.27;100108.50;4955769;28;96909;-80
2023/03/26 10:44:24;;;;;;;0.98;0.30;;;;;;;22.30;41.37;100107.66;4959445;28;97669;-80
2023/03/26 10:47:23;;;;;;;0.60;0.40;;;;;;;22.28;41.26;100107.81;4965180;28;96805;-80
2023/03/26 10:50:02;;;;;;;0.80;0.30;;;;;;;22.27;41.33;100114.34;4959358;28;96707;-80
2023/03/26 10:52:40;;;;;;;0.73;0.30;;;;;;;22.28;41.44;100116.03;4974440;28;96675;-80
2023/03/26 10:55:16;;;;;;;0.50;0.38;;;;;;;22.28;41.50;100115.19;4954335;28;98855;-79
2023/03/26 10:57:59;;;;;;;0.20;0.20;;;;;;;22.28;41.44;100118.75;4973911;28;97612;-81
2023/03/26 11:00:28;;;;;;;0.50;0.38;;;;;;;22.29;41.25;100117.72;4975598;28;96821;-81
2023/03/26 11:03:07;;;;;;;0.57;0.28;;;;;;;22.30;41.26;100121.31;4975816;28;96604;-80
2023/03/26 11:06:07;;;;;;;0.35;0.22;;;;;;;22.30;41.08;100119.44;4966175;28;97012;-79
2023/03/26 11:08:52;;;;;;;0.50;0.15;;;;;;;22.28;41.22;100121.50;4959881;28;98640;-80
2023/03/26 11:11:24;;;;;;;0.40;0.25;;;;;;;22.28;41.15;100123.38;4966488;28;96787;-80
2023/03/26 11:14:00;;;;;;;0.57;0.30;;;;;;;22.29;41.31;100123.19;4971122;28;96806;-81
2023/03/26 11:16:41;;;;;;;0.15;0.10;;;;;;;22.29;41.27;100119.59;4972192;28;97313;-81
2023/03/26 11:19:25;;;;;;;0.30;0.20;;;;;;;22.29;41.16;100119.59;4968671;28;97973;-81
2023/03/26 11:21:53;;;;;;;;;;;;;;;22.24;41.30;100127.56;4969704;28;96867;-83
2023/03/26 11:24:35;;;;;;;0.32;0.25;;;;;;;22.25;41.24;100126.53;4971871;28;96890;-84
2023/03/26 11:27:28;;;;;;;0.30;0.20;;;;;;;22.26;41.50;100129.06;4964103;28;96904;-83
2023/03/26 11:29:59;;;;;;;0.35;0.13;;;;;;;22.26;41.34;100134.53;4951927;28;96831;-82
2023/03/26 11:32:37;;;;;;;0.45;0.20;;;;;;;22.27;41.16;100136.22;4975752;28;97612;-82
2023/03/26 11:35:26;;;;;;;0.57;0.20;;;;;;;22.27;41.11;100135.38;4953318;28;96920;-84
2023/03/26 11:38:46;;;;;;;0.40;0.25;;;;;;;22.27;41.07;100140.84;4968097;28;97371;-83
2023/03/26 11:41:20;;;;;;;0.82;0.30;;;;;;;22.26;41.27;100144.63;4959999;28;97172;-83
2023/03/26 11:44:18;;;;;;;0.55;0.17;;;;;;;22.26;41.34;100139.16;4970617;28;96886;-83
2023/03/26 11:46:47;;;;;;;0.20;0.20;;;;;;;22.26;41.40;100150.09;4947290;28;96785;-83
2023/03/26 11:49:18;;;;;;;0.10;0.10;;;;;;;22.26;41.30;100145.47;4941152;28;96829;-82
2023/03/26 11:51:47;;;;;;;0.22;0.20;;;;;;;22.27;41.08;100140.84;4956534;28;98670;-83
2023/03/26 11:54:15;;;;;;;0.32;0.22;;;;;;;22.27;41.14;100144.41;4964830;28;96711;-83
2023/03/26 11:56:46;;;;;;;0.80;0.20;;;;;;;22.29;40.95;100145.06;4978133;28;97202;-83
2023/03/26 11:59:32;;;;;;;0.50;0.22;;;;;;;22.28;41.13;100143.38;4975091;28;97166;-83
2023/03/26 12:02:37;;;;;;;0.10;0.10;;;;;;;22.30;41.09;100145.94;4956338;28;98777;-83
2023/03/26 12:05:26;;;;;;;0.45;0.20;;;;;;;22.29;41.21;100144.22;4958604;28;96753;-83
2023/03/26 12:08:02;;;;;;;0.30;0.20;;;;;;;22.28;41.22;100151.59;4956642;28;97000;-82
2023/03/26 12:10:41;;;;;;;0.75;0.30;;;;;;;22.28;41.13;100153.47;4966242;28;97805;-83
2023/03/26 12:13:19;;;;;;;0.60;0.30;;;;;;;22.27;41.07;100147.16;4967880;28;99786;-83
2023/03/26 12:15:46;;;;;;;0.28;0.25;;;;;;;22.28;41.35;100145.28;4958156;28;96572;-83
2023/03/26 12:18:25;;;;;;;0.35;0.25;;;;;;;22.29;40.95;100149.69;4959723;28;96826;-83
2023/03/26 12:21:17;;;;;;;0.20;0.20;;;;;;;22.28;41.04;100145.28;4976987;28;97587;-82
2023/03/26 12:23:54;;;;;;;0.50;0.30;;;;;;;22.28;41.07;100156.22;4967368;28;98107;-83
2023/03/26 12:26:44;;;;;;;0.30;0.30;;;;;;;22.28;41.35;100140.63;4974465;28;96852;-82